Time;durP1;ratioP1;P1;durP2;ratioP2;P2;SDS_P1;SDS_P2;PMS_P1;PMS_P2;Temp;Humidity;BMP_temperature;BMP_pressure;BME280_temperature;BME280_humidity;BME280_pressure;Samples;Min_cycle;Max_cycle;Signal;HPM_P1;HPM_P2
2021/01/09 00:01:55;;;;;;;2.15;2.05;;;18.80;58.30;;;;;;5072138;28;20601;-37
2021/01/09 00:04:20;;;;;;;2.03;1.92;;;18.80;58.30;;;;;;5071456;28;20032;-39
2021/01/09 00:06:46;;;;;;;2.33;2.22;;;18.80;58.40;;;;;;5071112;28;20029;-38
2021/01/09 00:09:12;;;;;;;2.20;2.00;;;18.80;58.40;;;;;;5071130;28;20028;-39
2021/01/09 00:11:38;;;;;;;2.28;2.17;;;18.80;58.30;;;;;;5071965;28;20100;-36
2021/01/09 00:14:03;;;;;;;2.38;2.28;;;18.80;58.30;;;;;;5071887;28;20028;-37
2021/01/09 00:16:29;;;;;;;2.10;2.00;;;18.80;58.30;;;;;;5070694;28;20028;-37
2021/01/09 00:18:54;;;;;;;2.25;2.15;;;18.80;58.30;;;;;;5069131;28;20056;-37
2021/01/09 00:21:20;;;;;;;2.13;2.00;;;18.80;58.40;;;;;;5071046;28;20020;-36
2021/01/09 00:23:46;;;;;;;2.22;2.13;;;18.80;58.30;;;;;;5072781;28;20032;-43
2021/01/09 00:26:11;;;;;;;2.20;2.10;;;18.80;58.30;;;;;;5071995;28;20492;-39
2021/01/09 00:28:37;;;;;;;1.90;1.80;;;18.80;58.30;;;;;;5069068;28;20531;-37
2021/01/09 00:31:03;;;;;;;2.03;1.92;;;18.80;58.30;;;;;;5070451;28;20052;-39
2021/01/09 00:33:29;;;;;;;2.10;2.00;;;18.70;58.30;;;;;;5071902;28;20024;-37
2021/01/09 00:35:56;;;;;;;1.95;1.85;;;18.70;58.30;;;;;;5071661;28;20082;-38
2021/01/09 00:38:23;;;;;;;1.95;1.85;;;18.70;58.30;;;;;;5072919;28;20078;-37
2021/01/09 00:40:49;;;;;;;2.05;1.95;;;18.70;58.30;;;;;;5068480;28;20043;-37
2021/01/09 00:43:14;;;;;;;1.95;1.85;;;18.70;58.30;;;;;;5071770;28;20032;-38
2021/01/09 00:45:40;;;;;;;1.95;1.85;;;18.70;58.30;;;;;;5071892;28;20107;-39
2021/01/09 00:48:06;;;;;;;2.10;2.00;;;18.70;58.30;;;;;;5070848;28;20031;-40
2021/01/09 00:50:31;;;;;;;1.88;1.77;;;18.70;58.30;;;;;;5071774;28;20404;-38
2021/01/09 00:52:57;;;;;;;1.98;1.88;;;18.70;58.30;;;;;;5070243;28;20123;-38
2021/01/09 00:55:22;;;;;;;1.92;1.70;;;18.70;58.20;;;;;;5070828;28;20025;-38
2021/01/09 00:57:48;;;;;;;1.90;1.80;;;18.70;58.30;;;;;;5069410;28;20027;-40
2021/01/09 01:00:14;;;;;;;1.85;1.75;;;18.70;58.30;;;;;;5070138;28;20051;-37
2021/01/09 01:02:40;;;;;;;1.80;1.70;;;18.70;58.20;;;;;;5071328;28;20090;-37
2021/01/09 01:05:06;;;;;;;1.48;1.42;;;18.70;58.20;;;;;;5070027;28;20055;-36
2021/01/09 01:07:34;;;;;;;1.80;1.70;;;18.70;58.20;;;;;;5068601;28;20028;-38
2021/01/09 01:10:01;;;;;;;1.42;1.42;;;18.70;58.20;;;;;;5070930;28;20047;-36
2021/01/09 01:12:26;;;;;;;1.70;1.60;;;18.70;58.20;;;;;;5067945;28;20079;-37
2021/01/09 01:14:52;;;;;;;1.50;1.42;;;18.70;58.20;;;;;;5072540;28;20445;-37
2021/01/09 01:17:18;;;;;;;1.60;1.50;;;18.70;58.10;;;;;;5065312;28;20032;-36
2021/01/09 01:19:43;;;;;;;1.70;1.60;;;18.70;58.10;;;;;;5068045;28;20078;-36
2021/01/09 01:22:09;;;;;;;1.42;1.40;;;18.70;58.10;;;;;;5068379;28;20032;-39
2021/01/09 01:24:34;;;;;;;1.60;1.60;;;18.70;58.10;;;;;;5068827;28;20040;-39
2021/01/09 01:27:00;;;;;;;1.58;1.48;;;18.70;58.10;;;;;;5072135;28;20408;-39
2021/01/09 01:29:25;;;;;;;1.27;1.05;;;18.60;58.10;;;;;;5069991;28;20064;-37
2021/01/09 01:31:51;;;;;;;1.60;1.50;;;18.70;58.10;;;;;;5069076;28;20024;-37
2021/01/09 01:34:17;;;;;;;1.58;1.50;;;18.60;58.00;;;;;;5070314;28;20027;-37
2021/01/09 01:36:49;;;;;;;1.70;1.60;;;18.60;58.00;;;;;;5069527;28;20029;-38
2021/01/09 01:39:14;;;;;;;1.30;1.30;;;18.60;58.00;;;;;;5069856;28;20044;-38
2021/01/09 01:41:40;;;;;;;1.40;1.40;;;18.60;58.10;;;;;;5071270;28;20036;-39
2021/01/09 01:44:06;;;;;;;1.67;1.58;;;18.60;58.00;;;;;;5070070;28;20047;-36
2021/01/09 01:46:31;;;;;;;1.60;1.58;;;18.60;57.90;;;;;;5063311;28;20028;-41
2021/01/09 01:48:57;;;;;;;1.67;1.58;;;18.60;57.90;;;;;;5066577;28;20029;-37
2021/01/09 01:51:22;;;;;;;1.52;1.52;;;18.60;58.00;;;;;;5067679;28;20033;-40
2021/01/09 01:53:49;;;;;;;1.80;1.70;;;18.60;58.10;;;;;;5070456;28;20384;-36
2021/01/09 01:56:15;;;;;;;1.50;1.40;;;18.60;58.10;;;;;;5052745;28;20480;-38
2021/01/09 01:58:41;;;;;;;1.42;1.42;;;18.50;58.00;;;;;;5068225;28;20059;-36
2021/01/09 02:01:08;;;;;;;1.25;1.25;;;18.50;58.00;;;;;;5068456;28;20504;-39
2021/01/09 02:03:34;;;;;;;1.40;1.40;;;18.50;58.10;;;;;;5069972;28;20028;-37
2021/01/09 02:06:14;;;;;;;1.40;1.30;;;18.50;58.00;;;;;;5068047;28;20081;-36
2021/01/09 02:08:44;;;;;;;1.40;1.40;;;18.50;58.10;;;;;;5055195;28;20515;-39
2021/01/09 02:11:17;;;;;;;1.50;1.40;;;18.50;58.00;;;;;;5067642;28;20108;-37
2021/01/09 02:13:55;;;;;;;2.55;1.48;;;18.50;58.00;;;;;;5051881;28;20029;-37
2021/01/09 02:16:21;;;;;;;1.58;1.48;;;18.50;58.00;;;;;;5068335;28;20109;-37
2021/01/09 02:18:46;;;;;;;1.40;1.38;;;18.50;58.00;;;;;;5065951;28;20131;-37
2021/01/09 02:21:41;;;;;;;1.50;1.40;;;18.50;57.90;;;;;;5067683;28;20097;-37
2021/01/09 02:24:11;;;;;;;;;;;18.50;57.80;;;;;;5058367;28;20120;-38
2021/01/09 02:26:36;;;;;;;1.42;1.30;;;18.50;57.80;;;;;;5068783;28;19912;-38
2021/01/09 02:29:02;;;;;;;1.60;1.50;;;18.50;57.80;;;;;;5067248;28;20499;-39
2021/01/09 02:31:28;;;;;;;1.77;1.67;;;18.50;57.80;;;;;;5065129;28;20036;-39
2021/01/09 02:33:53;;;;;;;1.23;1.23;;;18.50;57.90;;;;;;5069226;28;20034;-41
2021/01/09 02:36:19;;;;;;;1.50;1.40;;;18.50;57.80;;;;;;5066803;28;20028;-41
2021/01/09 02:38:44;;;;;;;1.60;1.50;;;18.50;57.90;;;;;;5052175;28;20048;-37
2021/01/09 02:41:12;;;;;;;1.20;1.20;;;18.50;57.80;;;;;;5068060;28;20056;-38
2021/01/09 02:43:37;;;;;;;1.40;1.40;;;18.50;57.80;;;;;;5066964;28;20086;-39
2021/01/09 02:46:03;;;;;;;1.20;1.20;;;18.50;57.80;;;;;;5068441;28;20032;-39
2021/01/09 02:48:28;;;;;;;1.30;1.30;;;18.50;57.80;;;;;;5068330;28;20031;-37
2021/01/09 02:50:54;;;;;;;1.52;1.42;;;18.50;57.70;;;;;;5070395;28;21139;-38
2021/01/09 02:53:19;;;;;;;1.42;1.42;;;18.50;57.80;;;;;;5068999;28;20065;-37
2021/01/09 02:55:45;;;;;;;1.00;1.00;;;18.50;57.80;;;;;;5066373;28;20059;-38
2021/01/09 02:58:10;;;;;;;1.20;1.20;;;18.50;57.80;;;;;;5067970;28;20039;-39
2021/01/09 03:00:36;;;;;;;1.42;1.42;;;18.40;57.80;;;;;;5066926;28;20044;-37
2021/01/09 03:03:02;;;;;;;1.10;1.10;;;18.50;57.90;;;;;;5069442;28;20107;-39
2021/01/09 03:05:27;;;;;;;1.30;1.30;;;18.50;57.90;;;;;;5069737;28;20455;-38
2021/01/09 03:07:53;;;;;;;1.45;1.35;;;18.40;57.90;;;;;;5066807;28;20092;-37
2021/01/09 03:10:18;;;;;;;1.10;1.10;;;18.40;57.90;;;;;;5066761;28;20028;-39
2021/01/09 03:12:44;;;;;;;1.10;1.10;;;18.50;58.00;;;;;;5067076;28;20029;-39
2021/01/09 03:15:10;;;;;;;2.03;1.25;;;18.40;57.90;;;;;;5069478;28;20032;-40
2021/01/09 03:17:36;;;;;;;1.08;1.08;;;18.40;57.80;;;;;;5067020;28;20048;-37
2021/01/09 03:20:01;;;;;;;1.20;1.20;;;18.40;57.90;;;;;;5067100;28;20043;-40
2021/01/09 03:22:27;;;;;;;1.20;1.20;;;18.40;57.90;;;;;;5068002;28;20419;-40
2021/01/09 03:24:52;;;;;;;1.13;1.13;;;18.40;57.90;;;;;;5065497;28;20033;-40
2021/01/09 03:27:18;;;;;;;1.20;1.20;;;18.40;57.80;;;;;;5067397;28;20034;-37
2021/01/09 03:29:43;;;;;;;1.23;1.23;;;18.40;58.00;;;;;;5070117;28;20016;-38
2021/01/09 03:32:09;;;;;;;1.48;1.38;;;18.40;58.00;;;;;;5065351;28;20086;-37
2021/01/09 03:34:35;;;;;;;1.30;1.20;;;18.40;57.90;;;;;;5066677;28;20032;-40
2021/01/09 03:37:00;;;;;;;0.95;0.95;;;18.40;58.00;;;;;;5067115;28;20103;-37
2021/01/09 03:39:26;;;;;;;1.02;1.02;;;18.40;57.90;;;;;;5067679;28;20043;-37
2021/01/09 03:41:51;;;;;;;1.42;1.33;;;18.40;57.90;;;;;;5070192;28;20496;-36
2021/01/09 03:44:17;;;;;;;1.10;1.10;;;18.40;58.00;;;;;;5066272;28;20021;-39
2021/01/09 03:46:42;;;;;;;1.20;1.20;;;18.40;57.90;;;;;;5071566;28;20036;-39
2021/01/09 03:49:08;;;;;;;1.27;1.27;;;18.40;57.90;;;;;;5065633;28;20527;-39
2021/01/09 03:51:33;;;;;;;1.08;1.08;;;18.40;57.90;;;;;;5068176;28;20078;-37
2021/01/09 03:53:59;;;;;;;0.85;0.85;;;18.40;57.80;;;;;;5070384;28;20025;-40
2021/01/09 03:56:24;;;;;;;1.17;1.17;;;18.40;57.90;;;;;;5065030;28;20442;-49
2021/01/09 03:58:50;;;;;;;1.20;1.20;;;18.40;57.70;;;;;;5067674;28;20028;-39
2021/01/09 04:01:16;;;;;;;1.10;1.10;;;18.40;57.70;;;;;;5066672;28;20079;-37
2021/01/09 04:03:41;;;;;;;0.93;0.93;;;18.40;57.70;;;;;;5069128;28;20021;-39
2021/01/09 04:06:07;;;;;;;1.10;1.10;;;18.40;57.70;;;;;;5068623;28;20029;-42
2021/01/09 04:08:32;;;;;;;1.17;1.17;;;18.40;57.70;;;;;;5068074;28;20028;-37
2021/01/09 04:10:58;;;;;;;1.17;1.17;;;18.30;57.70;;;;;;5067728;28;20447;-38
2021/01/09 04:13:24;;;;;;;1.25;1.25;;;18.30;57.70;;;;;;5066321;28;20588;-36
2021/01/09 04:15:49;;;;;;;1.40;1.40;;;18.30;57.90;;;;;;5066311;28;20020;-38
2021/01/09 04:18:15;;;;;;;1.52;1.30;;;18.30;57.70;;;;;;5068011;28;20512;-37
2021/01/09 04:20:40;;;;;;;1.20;1.20;;;18.20;57.80;;;;;;5066064;28;20044;-38
2021/01/09 04:23:06;;;;;;;1.42;1.42;;;18.20;57.90;;;;;;5068170;28;20553;-37
2021/01/09 04:25:33;;;;;;;1.23;1.23;;;18.20;57.90;;;;;;5065113;28;20036;-39
2021/01/09 04:27:58;;;;;;;1.27;1.27;;;18.10;58.00;;;;;;5067444;28;20029;-36
2021/01/09 04:30:24;;;;;;;1.20;1.20;;;18.20;57.90;;;;;;5068114;28;20039;-39
2021/01/09 04:32:50;;;;;;;1.30;1.30;;;18.20;57.80;;;;;;5067483;28;20122;-39
2021/01/09 04:35:15;;;;;;;1.60;1.50;;;18.20;57.90;;;;;;5066261;28;20036;-37
2021/01/09 04:37:41;;;;;;;1.20;1.20;;;18.10;58.00;;;;;;5067428;28;20119;-36
2021/01/09 04:40:07;;;;;;;1.67;1.58;;;18.10;58.00;;;;;;5070149;28;20033;-39
2021/01/09 04:42:33;;;;;;;1.73;1.63;;;18.10;58.00;;;;;;5069662;28;20013;-36
2021/01/09 04:44:59;;;;;;;2.00;1.90;;;18.10;58.00;;;;;;5054162;28;20036;-39
2021/01/09 04:47:25;;;;;;;1.60;1.50;;;18.10;58.00;;;;;;5071101;28;20507;-40
2021/01/09 04:49:50;;;;;;;1.30;1.30;;;18.10;58.00;;;;;;5070255;28;20029;-37
2021/01/09 04:52:16;;;;;;;1.58;1.55;;;18.10;57.90;;;;;;5067937;28;20039;-43
2021/01/09 04:54:41;;;;;;;1.60;1.50;;;18.10;57.90;;;;;;5069174;28;20021;-41
2021/01/09 04:57:07;;;;;;;1.63;1.52;;;18.10;57.90;;;;;;5068544;28;20024;-37
2021/01/09 04:59:34;;;;;;;1.35;1.35;;;18.20;57.70;;;;;;5072007;28;20139;-37
2021/01/09 05:02:00;;;;;;;1.27;1.27;;;18.10;57.70;;;;;;5062747;28;20170;-38
2021/01/09 05:04:25;;;;;;;1.50;1.50;;;18.20;57.70;;;;;;5043632;28;20501;-36
2021/01/09 05:06:51;;;;;;;1.35;1.35;;;18.20;57.70;;;;;;5068972;28;20726;-41
2021/01/09 05:09:16;;;;;;;1.67;1.58;;;18.10;57.70;;;;;;5068485;28;20041;-37
2021/01/09 05:11:42;;;;;;;1.40;1.40;;;18.10;57.60;;;;;;5072516;28;20097;-37
2021/01/09 05:14:08;;;;;;;1.77;1.67;;;18.10;57.70;;;;;;5068087;28;20515;-38
2021/01/09 05:16:34;;;;;;;1.60;1.50;;;18.10;57.70;;;;;;5070223;28;20503;-34
2021/01/09 05:19:00;;;;;;;1.70;1.60;;;18.10;57.80;;;;;;5070086;28;20444;-39
2021/01/09 05:21:27;;;;;;;1.63;1.52;;;18.10;57.70;;;;;;5068111;28;20149;-35
2021/01/09 05:24:01;;;;;;;1.30;1.30;;;18.10;57.70;;;;;;5072095;28;20025;-35
2021/01/09 05:26:27;;;;;;;;;;;18.10;57.60;;;;;;5068026;28;20096;-35
2021/01/09 05:28:54;;;;;;;1.20;1.20;;;18.10;57.60;;;;;;5070053;28;19994;-38
2021/01/09 05:31:21;;;;;;;1.55;1.50;;;18.10;57.70;;;;;;5068883;28;20056;-35
2021/01/09 05:33:46;;;;;;;1.23;1.23;;;18.10;57.60;;;;;;5068863;28;20048;-37
2021/01/09 05:36:12;;;;;;;1.20;1.20;;;18.10;57.70;;;;;;5070545;28;20106;-38
2021/01/09 05:38:40;;;;;;;1.40;1.33;;;18.10;57.70;;;;;;5069731;28;20033;-35
2021/01/09 05:41:07;;;;;;;1.60;1.50;;;18.00;57.70;;;;;;5065734;28;20063;-37
2021/01/09 05:43:32;;;;;;;1.35;1.35;;;18.00;57.80;;;;;;5070237;28;20055;-37
2021/01/09 05:45:59;;;;;;;1.48;1.42;;;18.00;57.90;;;;;;5067796;28;20516;-38
2021/01/09 05:48:26;;;;;;;1.33;1.23;;;18.00;57.90;;;;;;5069873;28;20400;-35
2021/01/09 05:50:52;;;;;;;1.40;1.40;;;18.00;57.90;;;;;;5070350;28;20037;-35
2021/01/09 05:53:43;;;;;;;1.23;1.23;;;18.00;57.90;;;;;;5051157;28;20028;-37
2021/01/09 05:56:10;;;;;;;1.60;1.50;;;18.00;57.90;;;;;;5068091;28;20031;-37
2021/01/09 05:58:36;;;;;;;1.40;1.40;;;17.90;57.90;;;;;;5067739;28;20048;-37
2021/01/09 06:01:23;;;;;;;1.40;1.40;;;17.90;57.80;;;;;;5066865;28;20137;-35
2021/01/09 06:04:15;;;;;;;1.42;1.33;;;18.00;57.80;;;;;;5067665;28;20055;-36
2021/01/09 06:07:17;;;;;;;1.15;1.15;;;18.00;57.90;;;;;;5064283;28;20545;-38
2021/01/09 06:10:10;;;;;;;1.25;1.25;;;18.00;57.90;;;;;;5066186;28;20043;-34
2021/01/09 06:12:37;;;;;;;1.33;1.33;;;18.00;58.10;;;;;;5082693;28;20087;-41
2021/01/09 06:15:06;;;;;;;1.50;1.40;;;17.90;58.00;;;;;;5067109;28;20058;-41
2021/01/09 06:17:35;;;;;;;1.38;1.38;;;18.00;57.90;;;;;;5070170;28;20060;-39
2021/01/09 06:20:01;;;;;;;1.42;1.40;;;18.00;57.80;;;;;;5069226;28;20046;-37
2021/01/09 06:22:26;;;;;;;1.30;1.30;;;18.00;57.90;;;;;;5066763;28;20036;-36
2021/01/09 06:24:52;;;;;;;1.17;1.17;;;18.00;58.00;;;;;;5069367;28;20094;-37
2021/01/09 06:27:22;;;;;;;1.35;1.20;;;18.00;57.90;;;;;;5067081;28;20517;-38
2021/01/09 06:29:49;;;;;;;1.60;1.50;;;18.00;58.00;;;;;;5071204;28;20036;-37
2021/01/09 06:32:15;;;;;;;1.55;1.52;;;17.90;58.30;;;;;;5067372;28;20648;-38
2021/01/09 06:34:40;;;;;;;1.30;1.30;;;17.90;58.40;;;;;;5050529;28;20033;-35
2021/01/09 06:37:06;;;;;;;1.17;1.17;;;17.90;58.60;;;;;;5066989;28;20077;-37
2021/01/09 06:39:41;;;;;;;1.05;1.05;;;17.90;58.50;;;;;;5067809;28;20048;-37
2021/01/09 06:42:08;;;;;;;1.25;1.25;;;17.90;58.50;;;;;;5061854;28;20036;-38
2021/01/09 06:44:33;;;;;;;1.42;1.42;;;17.90;58.20;;;;;;5070130;28;20027;-36
2021/01/09 06:46:59;;;;;;;1.40;1.30;;;17.90;58.40;;;;;;5066268;28;20032;-39
2021/01/09 06:49:28;;;;;;;1.67;1.58;;;17.90;58.30;;;;;;5067742;28;20062;-37
2021/01/09 06:52:03;;;;;;;1.63;1.52;;;17.90;58.30;;;;;;5065471;28;20055;-39
2021/01/09 06:54:37;;;;;;;1.30;1.30;;;17.80;58.40;;;;;;5068368;28;20059;-37
2021/01/09 06:57:03;;;;;;;1.20;1.20;;;17.80;58.50;;;;;;5068192;28;20032;-43
2021/01/09 06:59:35;;;;;;;1.30;1.30;;;17.80;58.70;;;;;;5069548;28;20078;-37
2021/01/09 07:02:18;;;;;;;1.23;1.23;;;17.80;58.70;;;;;;5066918;28;20115;-36
2021/01/09 07:05:00;;;;;;;1.33;1.33;;;17.80;58.40;;;;;;5066649;28;20063;-38
2021/01/09 07:07:54;;;;;;;1.30;1.20;;;17.80;58.40;;;;;;5060105;28;20033;-37
2021/01/09 07:10:23;;;;;;;1.17;1.17;;;17.70;58.70;;;;;;5066487;28;20029;-38
2021/01/09 07:12:50;;;;;;;1.30;1.30;;;17.70;58.60;;;;;;5066618;28;20025;-37
2021/01/09 07:15:16;;;;;;;1.25;1.25;;;17.70;58.80;;;;;;5069237;28;20540;-36
2021/01/09 07:17:45;;;;;;;1.05;1.05;;;17.70;58.80;;;;;;5065261;28;20060;-37
2021/01/09 07:20:12;;;;;;;1.02;1.02;;;17.60;58.70;;;;;;5064164;28;20048;-37
2021/01/09 07:22:40;;;;;;;1.10;1.10;;;17.60;59.00;;;;;;5048579;28;20040;-36
2021/01/09 07:25:09;;;;;;;1.23;1.23;;;17.60;58.90;;;;;;5068367;28;20438;-38
2021/01/09 07:27:41;;;;;;;1.10;1.10;;;17.60;58.80;;;;;;5065366;28;20051;-38
2021/01/09 07:30:11;;;;;;;1.20;1.20;;;17.60;58.70;;;;;;5068996;28;20033;-37
2021/01/09 07:32:40;;;;;;;1.00;1.00;;;17.60;58.80;;;;;;5067905;28;20031;-37
2021/01/09 07:35:06;;;;;;;1.20;1.20;;;17.60;58.80;;;;;;5065978;28;20035;-37
2021/01/09 07:37:39;;;;;;;0.80;0.80;;;17.60;58.90;;;;;;5066064;28;20071;-35
2021/01/09 07:40:25;;;;;;;1.35;1.35;;;17.50;59.10;;;;;;5065758;28;20028;-38
2021/01/09 07:42:51;;;;;;;0.90;0.90;;;17.50;59.10;;;;;;5054492;28;20100;-36
2021/01/09 07:45:21;;;;;;;1.20;1.20;;;17.50;59.10;;;;;;5069181;28;20481;-37
2021/01/09 07:47:48;;;;;;;1.27;1.27;;;17.50;59.10;;;;;;5068160;28;20707;-36
2021/01/09 07:50:15;;;;;;;0.98;0.98;;;17.50;58.80;;;;;;5067349;28;20157;-36
2021/01/09 07:52:40;;;;;;;1.30;1.30;;;17.50;58.80;;;;;;5064665;28;20736;-37
2021/01/09 07:55:07;;;;;;;0.98;0.98;;;17.50;58.80;;;;;;5068526;28;20025;-36
2021/01/09 07:57:33;;;;;;;0.95;0.95;;;17.50;59.10;;;;;;5066605;28;20516;-43
2021/01/09 08:00:00;;;;;;;0.93;0.93;;;17.50;59.10;;;;;;5067945;28;20120;-36
2021/01/09 08:02:26;;;;;;;1.20;1.20;;;17.50;59.20;;;;;;5069242;28;20050;-37
2021/01/09 08:05:04;;;;;;;1.10;1.10;;;17.40;59.20;;;;;;5065955;28;20477;-38
2021/01/09 08:07:29;;;;;;;0.90;0.90;;;17.40;59.40;;;;;;5067328;28;20028;-37
2021/01/09 08:09:55;;;;;;;1.20;1.10;;;17.40;59.10;;;;;;5066627;28;20036;-36
2021/01/09 08:12:27;;;;;;;1.13;1.13;;;17.50;59.00;;;;;;5067508;28;20025;-37
2021/01/09 08:14:56;;;;;;;2.38;1.08;;;17.50;58.80;;;;;;5069981;28;20384;-39
2021/01/09 08:17:22;;;;;;;1.70;1.00;;;17.50;58.50;;;;;;5070583;28;20029;-36
2021/01/09 08:19:48;;;;;;;1.40;1.30;;;17.60;58.40;;;;;;5071367;28;20032;-37
2021/01/09 08:22:13;;;;;;;1.60;1.50;;;17.60;58.70;;;;;;5072123;28;20028;-39
2021/01/09 08:24:39;;;;;;;1.20;1.20;;;17.50;58.50;;;;;;5071556;28;20376;-37
2021/01/09 08:27:05;;;;;;;19.90;14.70;;;17.60;58.60;;;;;;5073277;28;20085;-37
2021/01/09 08:29:30;;;;;;;22.98;15.20;;;17.60;58.00;;;;;;5070948;28;20028;-33
2021/01/09 08:32:04;;;;;;;17.27;11.57;;;17.50;58.40;;;;;;4718845;28;10000550;-46
2021/01/09 08:34:31;;;;;;;13.50;10.13;;;17.60;58.60;;;;;;4715858;28;10000609;-39
2021/01/09 08:36:57;;;;;;;11.95;8.98;;;17.60;58.40;;;;;;5069560;28;20032;-34
2021/01/09 08:39:23;;;;;;;11.75;9.10;;;17.70;58.40;;;;;;5068613;28;20044;-36
2021/01/09 08:41:50;;;;;;;12.15;9.10;;;17.70;58.20;;;;;;5070964;28;20089;-39
2021/01/09 08:44:15;;;;;;;16.15;10.65;;;17.70;58.10;;;;;;5067973;28;20031;-39
2021/01/09 08:46:42;;;;;;;12.95;9.60;;;17.70;58.40;;;;;;5068663;28;20041;-36
2021/01/09 08:49:26;;;;;;;15.43;10.68;;;17.70;58.90;;;;;;5068414;28;20515;-37
2021/01/09 08:52:02;;;;;;;14.43;10.30;;;17.70;58.70;;;;;;5067289;28;20058;-39
2021/01/09 08:54:29;;;;;;;19.85;10.80;;;17.70;58.70;;;;;;5065377;28;20028;-37
2021/01/09 08:56:55;;;;;;;12.43;9.20;;;17.70;58.70;;;;;;5067335;28;20594;-32
2021/01/09 08:59:21;;;;;;;12.52;9.15;;;17.80;58.40;;;;;;5048349;28;20028;-36
2021/01/09 09:01:47;;;;;;;14.32;10.25;;;17.80;57.80;;;;;;5066514;28;20027;-35
2021/01/09 09:04:13;;;;;;;11.65;8.70;;;17.80;58.40;;;;;;5068203;28;20045;-36
2021/01/09 09:06:42;;;;;;;12.35;8.90;;;17.70;58.40;;;;;;5064593;28;20040;-34
2021/01/09 09:09:08;;;;;;;10.60;8.48;;;17.70;58.50;;;;;;5063890;28;20033;-39
2021/01/09 09:11:33;;;;;;;11.55;9.02;;;17.70;58.60;;;;;;5067458;28;20040;-42
2021/01/09 09:14:02;;;;;;;14.13;9.75;;;17.60;58.20;;;;;;5048130;28;20021;-36
2021/01/09 09:16:28;;;;;;;13.68;9.45;;;17.60;58.50;;;;;;5064385;28;20036;-45
2021/01/09 09:18:54;;;;;;;12.80;9.52;;;17.60;58.30;;;;;;5066648;28;20052;-37
2021/01/09 09:21:19;;;;;;;16.15;9.98;;;17.60;58.70;;;;;;5068330;28;20047;-36
2021/01/09 09:23:54;;;;;;;13.15;9.45;;;17.60;58.40;;;;;;5069518;28;20456;-40
2021/01/09 09:26:20;;;;;;;13.13;9.45;;;17.60;58.60;;;;;;5067243;28;20028;-38
2021/01/09 09:28:52;;;;;;;14.48;10.05;;;17.50;58.80;;;;;;5068444;28;20033;-37
2021/01/09 09:31:30;;;;;;;15.27;9.98;;;17.40;58.70;;;;;;5066454;28;20492;-37
2021/01/09 09:34:02;;;;;;;15.98;9.70;;;17.40;58.70;;;;;;5065456;28;20499;-35
2021/01/09 09:36:28;;;;;;;15.02;9.65;;;17.40;58.80;;;;;;5066450;28;20032;-36
2021/01/09 09:38:54;;;;;;;14.75;10.18;;;17.40;58.80;;;;;;5069985;28;20032;-35
2021/01/09 09:41:20;;;;;;;21.08;10.38;;;17.40;58.80;;;;;;5068316;28;20036;-41
2021/01/09 09:43:58;;;;;;;13.45;9.32;;;17.40;58.80;;;;;;5068238;28;20567;-37
2021/01/09 09:46:25;;;;;;;14.02;9.82;;;17.40;58.80;;;;;;5065828;28;20033;-39
2021/01/09 09:48:51;;;;;;;12.45;9.00;;;17.40;58.60;;;;;;5068141;28;20132;-36
2021/01/09 09:51:16;;;;;;;10.38;8.70;;;17.40;58.80;;;;;;5067759;28;20116;-41
2021/01/09 09:53:53;;;;;;;12.40;9.10;;;17.50;58.40;;;;;;5069878;28;20370;-35
2021/01/09 09:56:20;;;;;;;11.43;8.70;;;17.50;58.60;;;;;;5066881;28;20123;-37
2021/01/09 09:58:47;;;;;;;11.40;8.90;;;17.50;58.40;;;;;;5066251;28;20119;-37
2021/01/09 10:01:22;;;;;;;15.40;9.45;;;17.60;58.30;;;;;;5065621;28;20040;-35
2021/01/09 10:03:48;;;;;;;9.70;8.32;;;17.60;58.40;;;;;;5069706;28;20044;-36
2021/01/09 10:06:14;;;;;;;9.52;8.13;;;17.60;58.30;;;;;;5071166;28;20127;-37
2021/01/09 10:08:40;;;;;;;10.45;7.45;;;17.70;58.00;;;;;;5072995;28;20097;-36
2021/01/09 10:11:06;;;;;;;8.60;7.22;;;17.80;57.90;;;;;;5071176;28;20032;-35
2021/01/09 10:13:32;;;;;;;9.18;7.53;;;17.80;57.80;;;;;;5070770;28;20029;-38
2021/01/09 10:15:57;;;;;;;8.77;7.30;;;17.80;57.90;;;;;;5071315;28;20035;-36
2021/01/09 10:18:24;;;;;;;8.57;6.70;;;17.90;57.70;;;;;;5071009;28;20127;-36
2021/01/09 10:20:49;;;;;;;7.82;6.85;;;17.90;57.60;;;;;;5072336;28;20086;-36
2021/01/09 10:23:15;;;;;;;10.85;7.28;;;17.90;57.60;;;;;;5071232;28;20020;-34
2021/01/09 10:25:41;;;;;;;7.10;6.40;;;17.90;57.60;;;;;;5069484;28;20435;-36
2021/01/09 10:28:06;;;;;;;8.32;6.65;;;17.90;57.60;;;;;;5070773;28;20021;-36
2021/01/09 10:30:32;;;;;;;9.60;6.40;;;17.90;57.50;;;;;;5070863;28;20029;-37
2021/01/09 10:32:57;;;;;;;8.00;6.40;;;18.00;57.60;;;;;;5071563;28;20107;-37
2021/01/09 10:35:23;;;;;;;8.23;6.10;;;18.00;57.80;;;;;;5067402;28;20024;-37
2021/01/09 10:37:49;;;;;;;7.15;6.13;;;18.00;57.80;;;;;;5068189;28;20456;-38
2021/01/09 10:40:14;;;;;;;8.70;6.20;;;18.00;57.90;;;;;;5067738;28;20040;-39
2021/01/09 10:42:40;;;;;;;6.30;5.70;;;18.00;58.00;;;;;;5069214;28;20530;-36
2021/01/09 10:45:06;;;;;;;5.63;5.10;;;18.00;57.90;;;;;;5069588;28;20431;-36
2021/01/09 10:47:32;;;;;;;7.10;5.70;;;18.00;57.80;;;;;;5067095;28;20040;-37
2021/01/09 10:49:57;;;;;;;5.80;5.20;;;18.00;57.80;;;;;;5065904;28;20037;-35
2021/01/09 10:52:23;;;;;;;5.57;5.07;;;18.00;57.70;;;;;;5066521;28;20028;-36
2021/01/09 10:54:57;;;;;;;5.80;5.22;;;18.00;58.00;;;;;;5068033;28;20035;-35
2021/01/09 10:57:24;;;;;;;6.13;5.53;;;18.00;58.10;;;;;;5066826;28;20099;-42
2021/01/09 10:59:50;;;;;;;5.88;5.30;;;18.00;58.30;;;;;;5068165;28;20056;-35
2021/01/09 11:02:15;;;;;;;6.07;5.13;;;18.00;58.30;;;;;;5066221;28;20032;-37
2021/01/09 11:04:41;;;;;;;5.35;4.85;;;18.00;58.80;;;;;;5066086;28;20052;-36
2021/01/09 11:07:07;;;;;;;5.68;4.80;;;18.00;58.40;;;;;;5066239;28;20039;-38
2021/01/09 11:09:32;;;;;;;5.47;4.95;;;18.00;58.50;;;;;;5066798;28;20024;-38
2021/01/09 11:11:58;;;;;;;4.95;4.55;;;18.00;58.40;;;;;;5067899;28;20090;-40
2021/01/09 11:14:24;;;;;;;5.15;4.70;;;18.00;58.40;;;;;;5066654;28;20040;-37
2021/01/09 11:16:59;;;;;;;5.13;4.60;;;18.00;58.30;;;;;;5066116;28;20063;-35
2021/01/09 11:19:25;;;;;;;6.28;5.00;;;18.00;58.40;;;;;;5062952;28;20057;-38
2021/01/09 11:21:51;;;;;;;6.00;5.10;;;18.00;58.30;;;;;;5065242;28;20039;-42
2021/01/09 11:24:16;;;;;;;6.05;5.57;;;18.00;58.30;;;;;;5065913;28;20032;-36
2021/01/09 11:26:42;;;;;;;5.50;5.00;;;18.00;58.30;;;;;;5067924;28;20039;-38
2021/01/09 11:29:07;;;;;;;5.70;5.10;;;18.00;58.20;;;;;;5065088;28;20024;-39
2021/01/09 11:31:33;;;;;;;4.88;4.43;;;18.00;58.30;;;;;;5065750;28;20033;-36
2021/01/09 11:33:58;;;;;;;5.68;5.07;;;18.00;58.20;;;;;;5066333;28;20028;-38
2021/01/09 11:36:24;;;;;;;5.25;4.75;;;18.00;58.10;;;;;;5063377;28;20509;-36
2021/01/09 11:38:50;;;;;;;6.78;5.75;;;18.00;58.10;;;;;;5067178;28;20054;-35
2021/01/09 11:41:15;;;;;;;6.88;5.25;;;18.00;58.00;;;;;;5066119;28;20036;-36
2021/01/09 11:43:41;;;;;;;5.65;5.05;;;18.10;58.10;;;;;;5066166;28;20047;-40
2021/01/09 11:46:07;;;;;;;5.97;5.22;;;18.10;58.00;;;;;;5063953;28;20559;-37
2021/01/09 11:48:34;;;;;;;6.20;5.60;;;18.10;58.00;;;;;;5062859;28;20032;-36
2021/01/09 11:50:59;;;;;;;6.00;5.30;;;18.20;58.00;;;;;;5068521;28;20033;-37
2021/01/09 11:53:25;;;;;;;6.00;5.45;;;18.20;57.90;;;;;;5067654;28;20424;-37
2021/01/09 11:55:51;;;;;;;5.28;4.72;;;18.20;57.60;;;;;;5064966;28;20038;-39
2021/01/09 11:58:17;;;;;;;6.93;5.78;;;18.20;57.50;;;;;;5065178;28;20766;-36
2021/01/09 12:00:43;;;;;;;6.20;5.38;;;18.20;57.50;;;;;;5063921;28;20054;-37
2021/01/09 12:03:08;;;;;;;8.77;6.18;;;18.20;57.60;;;;;;5064856;28;20036;-35
2021/01/09 12:05:34;;;;;;;8.50;6.28;;;18.20;57.80;;;;;;5067918;28;20036;-39
2021/01/09 12:08:01;;;;;;;7.28;6.30;;;18.20;57.90;;;;;;5069525;28;20584;-35
2021/01/09 12:10:27;;;;;;;7.22;6.07;;;18.20;58.10;;;;;;5068272;28;20041;-38
2021/01/09 12:12:53;;;;;;;7.05;6.35;;;18.20;58.10;;;;;;5065178;28;20515;-37
2021/01/09 12:15:18;;;;;;;10.73;6.38;;;18.30;58.10;;;;;;5069980;28;20024;-41
2021/01/09 12:17:44;;;;;;;6.82;6.05;;;18.30;58.10;;;;;;5071547;28;20040;-37
2021/01/09 12:20:10;;;;;;;7.13;5.97;;;18.30;58.10;;;;;;5066689;28;20458;-36
2021/01/09 12:22:36;;;;;;;7.18;6.03;;;18.40;58.10;;;;;;5065173;28;20029;-36
2021/01/09 12:25:01;;;;;;;7.78;5.32;;;18.40;58.10;;;;;;5068595;28;20081;-36
2021/01/09 12:27:27;;;;;;;6.25;5.65;;;18.40;58.00;;;;;;5068618;28;20040;-35
2021/01/09 12:29:52;;;;;;;7.57;6.47;;;18.40;58.00;;;;;;5066419;28;20033;-38
2021/01/09 12:32:18;;;;;;;8.25;6.63;;;18.40;57.60;;;;;;5069665;28;20058;-40
2021/01/09 12:34:44;;;;;;;6.15;5.43;;;18.40;57.80;;;;;;5069203;28;20025;-36
2021/01/09 12:37:10;;;;;;;5.53;4.93;;;18.40;57.90;;;;;;5068512;28;20030;-35
2021/01/09 12:39:36;;;;;;;5.75;5.25;;;18.40;57.80;;;;;;5067802;28;20033;-37
2021/01/09 12:42:01;;;;;;;6.50;5.82;;;18.40;58.40;;;;;;5068845;28;20452;-42
2021/01/09 12:44:27;;;;;;;7.28;4.78;;;18.40;57.80;;;;;;5067503;28;20016;-39
2021/01/09 12:46:53;;;;;;;5.68;4.32;;;18.40;57.90;;;;;;5064112;28;20028;-37